createdAt,value
2023-04-15T00:08:08.753Z,0.1
2023-04-15T00:20:08.905Z,0.1
2023-04-15T00:32:08.865Z,0.2
2023-04-15T00:44:08.812Z,0.2
2023-04-15T00:56:08.935Z,0.2
2023-04-15T01:08:08.987Z,0.2
2023-04-15T01:20:08.854Z,0.2
2023-04-15T01:32:08.828Z,0.3
2023-04-15T01:44:08.990Z,0.3
2023-04-15T01:56:08.967Z,0.3
2023-04-15T02:08:08.931Z,0.3
2023-04-15T02:20:08.871Z,0.3
2023-04-15T02:32:09.055Z,0.4
2023-04-15T02:44:10.302Z,0.4
2023-04-15T02:56:08.931Z,0.4
2023-04-15T03:08:09.150Z,0.5
2023-04-15T03:20:09.085Z,0.5
2023-04-15T03:32:09.028Z,0.5
2023-04-15T03:44:08.974Z,0.5
2023-04-15T03:56:09.146Z,0.5
2023-04-15T04:08:09.094Z,0.6
2023-04-15T04:20:09.095Z,0.6
2023-04-15T04:32:09.131Z,0.6
2023-04-15T04:44:09.019Z,0.6
2023-04-15T04:56:09.142Z,0.6
2023-04-15T05:08:09.245Z,0.7
2023-04-15T05:20:09.064Z,0.7
2023-04-15T05:32:09.242Z,0.7
2023-04-15T05:44:09.214Z,0.7
2023-04-15T05:56:09.134Z,0.7
2023-04-15T06:08:09.094Z,0.8
2023-04-15T06:20:09.271Z,0.8
2023-04-15T06:32:09.200Z,0.9
2023-04-15T06:44:09.255Z,0.9
2023-04-15T06:56:09.112Z,0.9
2023-04-15T07:08:09.299Z,0.9
2023-04-15T07:20:09.224Z,0.9
2023-04-15T07:32:09.201Z,1
2023-04-15T07:44:09.386Z,1
2023-04-15T07:56:09.338Z,1
2023-04-15T08:08:09.444Z,1
2023-04-15T08:20:09.316Z,1
2023-04-15T08:32:09.386Z,1.1
2023-04-15T08:44:09.359Z,1.1
2023-04-15T08:56:09.297Z,1.1
2023-04-15T09:08:09.537Z,1.1
2023-04-15T09:20:09.442Z,1.1
2023-04-15T09:32:09.366Z,1.2
2023-04-15T09:44:09.305Z,1.2
2023-04-15T09:56:09.822Z,1.2
2023-04-15T10:08:09.428Z,1.3
2023-04-15T10:20:09.445Z,1.3
2023-04-15T10:32:09.335Z,1.3
2023-04-15T10:44:09.514Z,1.3
2023-04-15T10:56:09.461Z,1.3
2023-04-15T11:08:09.449Z,1.4
2023-04-15T11:20:09.424Z,1.4
2023-04-15T11:32:09.695Z,1.4
2023-04-15T11:44:09.482Z,1.4
2023-04-15T11:56:09.480Z,1.4
2023-04-15T12:08:09.432Z,1.5
2023-04-15T12:20:09.662Z,1.5
2023-04-15T12:32:09.566Z,1.5
2023-04-15T12:44:09.528Z,1.5
2023-04-15T12:56:09.715Z,1.5
2023-04-15T13:08:09.765Z,1.6
2023-04-15T13:20:09.611Z,1.6
2023-04-15T13:32:09.574Z,1.6
2023-04-15T13:44:09.695Z,1.6
2023-04-15T13:56:09.774Z,1.6
2023-04-15T14:08:09.572Z,1.7
2023-04-15T14:20:09.786Z,1.7
2023-04-15T14:32:11.234Z,1.8
2023-04-15T14:44:09.752Z,1.8
2023-04-15T14:56:09.647Z,1.8
2023-04-15T15:08:09.628Z,1.8
2023-04-15T15:20:09.792Z,1.8
2023-04-15T15:32:09.745Z,1.9
2023-04-15T15:44:09.673Z,1.9
2023-04-15T15:56:09.848Z,1.9
2023-04-15T16:08:09.800Z,2
2023-04-15T16:20:09.874Z,2
2023-04-15T16:32:09.794Z,2.1
2023-04-15T16:44:09.923Z,2.1
2023-04-15T16:56:09.840Z,2.1
2023-04-15T17:08:09.834Z,2.1
2023-04-15T17:20:10.544Z,2.1
2023-04-15T17:32:10.077Z,2.2
2023-04-15T17:44:09.881Z,2.2
2023-04-15T17:56:09.886Z,2.2
2023-04-15T18:08:09.785Z,2.2
2023-04-15T18:20:10.020Z,2.2
2023-04-15T18:32:09.908Z,2.3
2023-04-15T18:44:09.897Z,2.3
2023-04-15T18:56:09.819Z,2.3
2023-04-15T19:08:09.992Z,2.3
2023-04-15T19:20:09.962Z,2.3
2023-04-15T19:32:10.046Z,2.4
2023-04-15T19:44:10.050Z,2.4
2023-04-15T19:56:10.048Z,2.4
2023-04-15T20:08:09.967Z,2.5
2023-04-15T20:20:09.968Z,2.5
2023-04-15T20:32:10.154Z,2.5
2023-04-15T20:44:10.056Z,2.5
2023-04-15T20:56:10.016Z,2.5
2023-04-15T21:08:10.183Z,2.6
2023-04-15T21:20:10.134Z,2.6
2023-04-15T21:32:10.192Z,2.7
2023-04-15T21:44:10.339Z,2.7
2023-04-15T21:56:10.197Z,2.7
2023-04-15T22:08:10.155Z,2.8
2023-04-15T22:20:10.160Z,2.8
2023-04-15T22:32:10.071Z,2.8
2023-04-15T22:44:10.240Z,2.8
2023-04-15T22:56:10.157Z,2.8
2023-04-15T23:08:10.137Z,0
2023-04-15T23:20:10.183Z,0
2023-04-15T23:32:10.179Z,0.1
2023-04-15T23:44:10.249Z,0.1
2023-04-15T23:56:10.272Z,0.1
